If you wish to contribute or participate in the discussions about articles you are invited to join SKYbrary as a registered user

 Actions

Armilla Airport

From SKYbrary Wiki

LEGA
Airport
ICAO: LEGA
Summary
Name Armilla Airport
Region Europe
Territory Spain ES.gif
Location , Andalucia
Serving Granada
Elevation 700.126 m
2,297 ft
2,297 ft700.126 m
Type medium airport
Coordinates 37° 7' 59.5992", -3° 38' 8.4984"
Runways
Designator Length Width Surface ROPS
18/36 1300 m4,265.092 ft 30 m98.425 ft ASP /
METAR
Observation LEGA 111600Z 00000KT 9999 FEW020 SCT040 07/02 Q1004
Station Granada / Armilla
Date/Time 11 December 2017 16:00:00
Wind direction
Wind speed 00 kts
Lowest cloud amount few clouds
Temperature 7°C
Dew point 2°C
Humidity 70%
QNH 1004 hPa
Weather condition n/a